Airfield :
LOGIN :

Register | Disclaimer

   EN    FR    IT 

 










Legend :    VFR   Marginal VFR   IFR   Intensive IFR   Very Intensive IFR
Visi :
Ceiling :
>= 8 km
>= 3000ft
5 to 8 km
1000 to 3000 ft
1500m to 5 km
500 to 1000 ft
800 to 1500m
200 to 500 ft
< 800m
< 200 ft
Symbols :   Thunderstorms  Fog  Heavy snow  Heavy precipitations  Wind > 20 kt
SIGMETs :     Misc.  Thunderstorms  Icing  Turbulence  Mountain Waves  Volcanic Ashes






- Airport Elevation : 796 ft
- IATA code : SYT


LFLN - Saint-Yan

CURRENT METAR :
  • 011230Z AUTO 04009KT 9999 FEW007 OVC041 07/02 Q1021 NOSIG

EXPIRED METARs :
  • 011200Z AUTO 05011KT 9999 FEW012 OVC041 07/02 Q1021 NOSIG
  • 011130Z AUTO 04010KT 9999 BKN026 BKN031 OVC042 07/03 Q1021 NOSIG
  • 011100Z AUTO 04009KT 9999 FEW024 OVC040 08/04 Q1021 NOSIG
  • 011030Z AUTO 02006KT 350V060 9999 FEW019 OVC037 07/04 Q1021 NOSIG
  • 011000Z AUTO 35003KT 9999 OVC020 07/04 Q1021 NOSIG

TAF TAF LFLN
Valid from the 01 at 12:00 until the 01 at 21:00 UTC


011100Z 0112/0121 02008KT 9999 BKN025



MET'MAP, your aeronautical weather chart ! - Copyright ORBIFLY December 2007 - Disclaimer

ORBIFLY MET'MAP TEAM :

Programming & Development : Alexandra Zaïnal
Original concept : Baudouin d'Aumeries
Technical & hardware support : Manuel Goepfert
Assistance : Marc-Olivier Méhu




SOURCES & CREDITS :

   NOAA